sensor_id;sensor_type;location;lat;lon;timestamp;temperature;humidity
16980;DHT22;42288;52.182;21.156;2023-12-20T00:02:20;6.90;99.90
16980;DHT22;42288;52.182;21.156;2023-12-20T00:04:45;6.90;99.90
16980;DHT22;42288;52.182;21.156;2023-12-20T00:07:11;6.80;99.90
16980;DHT22;42288;52.182;21.156;2023-12-20T00:09:37;6.80;99.90
16980;DHT22;42288;52.182;21.156;2023-12-20T00:12:02;6.90;99.90
16980;DHT22;42288;52.182;21.156;2023-12-20T00:14:28;6.90;99.90
16980;DHT22;42288;52.182;21.156;2023-12-20T00:16:53;6.90;99.90
16980;DHT22;42288;52.182;21.156;2023-12-20T00:19:19;6.90;99.90
16980;DHT22;42288;52.182;21.156;2023-12-20T00:21:45;6.90;99.90
16980;DHT22;42288;52.182;21.156;2023-12-20T00:24:11;6.80;99.90
16980;DHT22;42288;52.182;21.156;2023-12-20T00:26:36;6.70;99.90
16980;DHT22;42288;52.182;21.156;2023-12-20T00:29:02;6.80;99.90
16980;DHT22;42288;52.182;21.156;2023-12-20T00:31:28;6.80;99.90
16980;DHT22;42288;52.182;21.156;2023-12-20T00:33:53;6.70;99.90
16980;DHT22;42288;52.182;21.156;2023-12-20T00:36:19;6.70;99.90
16980;DHT22;42288;52.182;21.156;2023-12-20T00:38:45;6.90;99.90
16980;DHT22;42288;52.182;21.156;2023-12-20T00:41:11;6.70;99.90
16980;DHT22;42288;52.182;21.156;2023-12-20T00:43:36;6.70;99.90
16980;DHT22;42288;52.182;21.156;2023-12-20T00:46:02;6.70;99.90
16980;DHT22;42288;52.182;21.156;2023-12-20T00:48:28;6.70;99.90
16980;DHT22;42288;52.182;21.156;2023-12-20T00:50:55;6.70;99.90
16980;DHT22;42288;52.182;21.156;2023-12-20T00:53:21;6.80;99.90
16980;DHT22;42288;52.182;21.156;2023-12-20T00:55:46;6.90;99.90
16980;DHT22;42288;52.182;21.156;2023-12-20T00:58:12;6.90;99.90
16980;DHT22;42288;52.182;21.156;2023-12-20T01:00:38;6.90;99.90
16980;DHT22;42288;52.182;21.156;2023-12-20T01:03:04;7.00;99.90
16980;DHT22;42288;52.182;21.156;2023-12-20T01:05:30;6.90;99.90
16980;DHT22;42288;52.182;21.156;2023-12-20T01:07:56;6.90;99.90
16980;DHT22;42288;52.182;21.156;2023-12-20T01:10:21;6.90;99.90
16980;DHT22;42288;52.182;21.156;2023-12-20T01:12:48;6.80;99.90
16980;DHT22;42288;52.182;21.156;2023-12-20T01:15:13;6.80;99.90
16980;DHT22;42288;52.182;21.156;2023-12-20T01:17:39;6.90;99.90
16980;DHT22;42288;52.182;21.156;2023-12-20T01:20:05;6.80;99.90
16980;DHT22;42288;52.182;21.156;2023-12-20T01:22:31;6.90;99.90
16980;DHT22;42288;52.182;21.156;2023-12-20T01:24:57;6.70;99.90
16980;DHT22;42288;52.182;21.156;2023-12-20T01:27:22;6.60;99.90
16980;DHT22;42288;52.182;21.156;2023-12-20T01:29:48;6.60;99.90
16980;DHT22;42288;52.182;21.156;2023-12-20T01:32:14;6.60;99.90
16980;DHT22;42288;52.182;21.156;2023-12-20T01:34:39;6.60;99.90
16980;DHT22;42288;52.182;21.156;2023-12-20T01:37:06;6.70;99.90
16980;DHT22;42288;52.182;21.156;2023-12-20T01:39:32;6.70;99.90
16980;DHT22;42288;52.182;21.156;2023-12-20T01:41:57;6.70;99.90
16980;DHT22;42288;52.182;21.156;2023-12-20T01:44:23;6.60;99.90
16980;DHT22;42288;52.182;21.156;2023-12-20T01:46:48;6.60;99.90
16980;DHT22;42288;52.182;21.156;2023-12-20T01:49:14;6.50;99.90
16980;DHT22;42288;52.182;21.156;2023-12-20T01:51:40;6.60;99.90
16980;DHT22;42288;52.182;21.156;2023-12-20T01:54:06;6.70;99.90
16980;DHT22;42288;52.182;21.156;2023-12-20T01:56:32;6.50;99.90
16980;DHT22;42288;52.182;21.156;2023-12-20T01:58:58;6.60;99.90
16980;DHT22;42288;52.182;21.156;2023-12-20T02:01:24;6.60;99.90
16980;DHT22;42288;52.182;21.156;2023-12-20T02:03:50;6.50;99.90
16980;DHT22;42288;52.182;21.156;2023-12-20T02:06:18;6.40;99.90
16980;DHT22;42288;52.182;21.156;2023-12-20T02:08:44;6.50;99.90
16980;DHT22;42288;52.182;21.156;2023-12-20T02:11:10;6.70;99.90
16980;DHT22;42288;52.182;21.156;2023-12-20T02:13:36;6.50;99.90
16980;DHT22;42288;52.182;21.156;2023-12-20T02:16:01;6.50;99.90
16980;DHT22;42288;52.182;21.156;2023-12-20T02:18:28;6.50;99.90
16980;DHT22;42288;52.182;21.156;2023-12-20T02:20:53;6.50;99.90
16980;DHT22;42288;52.182;21.156;2023-12-20T02:23:19;6.50;99.90
16980;DHT22;42288;52.182;21.156;2023-12-20T02:25:44;6.50;99.90
16980;DHT22;42288;52.182;21.156;2023-12-20T02:28:10;6.60;99.90
16980;DHT22;42288;52.182;21.156;2023-12-20T02:30:36;6.60;99.90
16980;DHT22;42288;52.182;21.156;2023-12-20T02:33:03;6.40;99.90
16980;DHT22;42288;52.182;21.156;2023-12-20T02:35:34;6.40;99.90
16980;DHT22;42288;52.182;21.156;2023-12-20T02:38:00;6.50;99.90
16980;DHT22;42288;52.182;21.156;2023-12-20T02:40:25;6.60;99.90
16980;DHT22;42288;52.182;21.156;2023-12-20T02:42:51;6.50;99.90
16980;DHT22;42288;52.182;21.156;2023-12-20T02:45:17;6.50;99.90
16980;DHT22;42288;52.182;21.156;2023-12-20T02:47:42;6.50;99.90
16980;DHT22;42288;52.182;21.156;2023-12-20T02:50:08;6.50;99.90
16980;DHT22;42288;52.182;21.156;2023-12-20T02:52:33;6.40;99.90
16980;DHT22;42288;52.182;21.156;2023-12-20T02:54:59;6.50;99.90
16980;DHT22;42288;52.182;21.156;2023-12-20T02:57:25;6.40;99.90
16980;DHT22;42288;52.182;21.156;2023-12-20T02:59:50;6.40;99.90
16980;DHT22;42288;52.182;21.156;2023-12-20T03:02:16;6.60;99.90
16980;DHT22;42288;52.182;21.156;2023-12-20T03:04:42;6.50;99.90
16980;DHT22;42288;52.182;21.156;2023-12-20T03:07:07;6.30;99.90
16980;DHT22;42288;52.182;21.156;2023-12-20T03:09:33;6.40;99.90
16980;DHT22;42288;52.182;21.156;2023-12-20T03:11:58;6.40;99.90
16980;DHT22;42288;52.182;21.156;2023-12-20T03:14:24;6.50;99.90
16980;DHT22;42288;52.182;21.156;2023-12-20T03:16:50;6.40;99.90
16980;DHT22;42288;52.182;21.156;2023-12-20T03:19:17;6.40;99.90
16980;DHT22;42288;52.182;21.156;2023-12-20T03:21:43;6.30;99.90
16980;DHT22;42288;52.182;21.156;2023-12-20T03:24:08;6.40;99.90
16980;DHT22;42288;52.182;21.156;2023-12-20T03:26:34;6.40;99.90
16980;DHT22;42288;52.182;21.156;2023-12-20T03:28:59;6.50;99.90
16980;DHT22;42288;52.182;21.156;2023-12-20T03:31:25;6.50;99.90
16980;DHT22;42288;52.182;21.156;2023-12-20T03:33:51;6.50;99.90
16980;DHT22;42288;52.182;21.156;2023-12-20T03:36:19;6.50;99.90
16980;DHT22;42288;52.182;21.156;2023-12-20T03:38:45;6.50;99.90
16980;DHT22;42288;52.182;21.156;2023-12-20T03:41:10;6.40;99.90
16980;DHT22;42288;52.182;21.156;2023-12-20T03:43:36;6.40;99.90
16980;DHT22;42288;52.182;21.156;2023-12-20T03:46:03;6.50;99.90
16980;DHT22;42288;52.182;21.156;2023-12-20T03:48:29;6.50;99.90
16980;DHT22;42288;52.182;21.156;2023-12-20T03:50:55;6.40;99.90
16980;DHT22;42288;52.182;21.156;2023-12-20T03:53:22;6.70;99.90
16980;DHT22;42288;52.182;21.156;2023-12-20T03:55:48;6.60;99.90
16980;DHT22;42288;52.182;21.156;2023-12-20T03:58:13;6.60;99.90
16980;DHT22;42288;52.182;21.156;2023-12-20T04:00:39;6.50;99.90
16980;DHT22;42288;52.182;21.156;2023-12-20T04:03:05;6.50;99.90
16980;DHT22;42288;52.182;21.156;2023-12-20T04:05:30;6.50;99.90
16980;DHT22;42288;52.182;21.156;2023-12-20T04:07:56;6.60;99.90
16980;DHT22;42288;52.182;21.156;2023-12-20T04:10:21;6.60;99.90
16980;DHT22;42288;52.182;21.156;2023-12-20T04:12:47;6.50;99.90
16980;DHT22;42288;52.182;21.156;2023-12-20T04:15:13;6.50;99.90
16980;DHT22;42288;52.182;21.156;2023-12-20T04:17:38;6.50;99.90
16980;DHT22;42288;52.182;21.156;2023-12-20T04:20:05;6.60;99.90
16980;DHT22;42288;52.182;21.156;2023-12-20T04:22:30;6.60;99.90
16980;DHT22;42288;52.182;21.156;2023-12-20T04:24:56;6.50;99.90
16980;DHT22;42288;52.182;21.156;2023-12-20T04:27:22;6.60;99.90
16980;DHT22;42288;52.182;21.156;2023-12-20T04:29:48;6.50;99.90
16980;DHT22;42288;52.182;21.156;2023-12-20T04:32:13;6.60;99.90
16980;DHT22;42288;52.182;21.156;2023-12-20T04:34:39;6.60;99.90
16980;DHT22;42288;52.182;21.156;2023-12-20T04:37:04;6.40;99.90
16980;DHT22;42288;52.182;21.156;2023-12-20T04:39:30;6.50;99.90
16980;DHT22;42288;52.182;21.156;2023-12-20T04:41:55;6.50;99.90
16980;DHT22;42288;52.182;21.156;2023-12-20T04:44:21;6.50;99.90
16980;DHT22;42288;52.182;21.156;2023-12-20T04:46:47;6.40;99.90
16980;DHT22;42288;52.182;21.156;2023-12-20T04:49:12;6.80;99.90
16980;DHT22;42288;52.182;21.156;2023-12-20T04:51:38;6.40;99.90
16980;DHT22;42288;52.182;21.156;2023-12-20T04:54:04;6.50;99.90
16980;DHT22;42288;52.182;21.156;2023-12-20T04:56:29;6.90;99.90
16980;DHT22;42288;52.182;21.156;2023-12-20T04:58:55;6.50;99.90
16980;DHT22;42288;52.182;21.156;2023-12-20T05:01:20;6.60;99.90
16980;DHT22;42288;52.182;21.156;2023-12-20T05:03:46;6.60;99.90
16980;DHT22;42288;52.182;21.156;2023-12-20T05:06:12;6.50;99.90
16980;DHT22;42288;52.182;21.156;2023-12-20T05:08:38;6.70;99.90
16980;DHT22;42288;52.182;21.156;2023-12-20T05:11:04;6.70;99.90
16980;DHT22;42288;52.182;21.156;2023-12-20T05:13:30;6.80;99.90
16980;DHT22;42288;52.182;21.156;2023-12-20T05:15:55;6.60;99.90
16980;DHT22;42288;52.182;21.156;2023-12-20T05:18:22;6.60;99.90
16980;DHT22;42288;52.182;21.156;2023-12-20T05:20:49;6.60;99.90
16980;DHT22;42288;52.182;21.156;2023-12-20T05:23:15;6.80;99.90
16980;DHT22;42288;52.182;21.156;2023-12-20T05:25:40;6.70;99.90
16980;DHT22;42288;52.182;21.156;2023-12-20T05:28:06;6.70;99.90
16980;DHT22;42288;52.182;21.156;2023-12-20T05:30:32;6.70;99.90
16980;DHT22;42288;52.182;21.156;2023-12-20T05:32:57;6.60;99.90
16980;DHT22;42288;52.182;21.156;2023-12-20T05:35:23;6.60;99.90
16980;DHT22;42288;52.182;21.156;2023-12-20T05:37:49;6.60;99.90
16980;DHT22;42288;52.182;21.156;2023-12-20T05:40:14;6.60;99.90
16980;DHT22;42288;52.182;21.156;2023-12-20T05:42:40;6.60;99.90
16980;DHT22;42288;52.182;21.156;2023-12-20T05:45:06;6.60;99.90
16980;DHT22;42288;52.182;21.156;2023-12-20T05:47:32;6.70;99.90
16980;DHT22;42288;52.182;21.156;2023-12-20T05:49:57;6.80;99.90
16980;DHT22;42288;52.182;21.156;2023-12-20T05:52:24;6.60;99.90
16980;DHT22;42288;52.182;21.156;2023-12-20T05:54:49;6.70;99.90
16980;DHT22;42288;52.182;21.156;2023-12-20T05:57:15;6.70;99.90
16980;DHT22;42288;52.182;21.156;2023-12-20T05:59:41;6.80;99.90
16980;DHT22;42288;52.182;21.156;2023-12-20T06:02:06;7.30;99.90
16980;DHT22;42288;52.182;21.156;2023-12-20T06:04:32;6.70;99.90
16980;DHT22;42288;52.182;21.156;2023-12-20T06:06:58;6.60;99.90
16980;DHT22;42288;52.182;21.156;2023-12-20T06:09:25;7.30;99.90
16980;DHT22;42288;52.182;21.156;2023-12-20T06:11:51;6.70;99.90
16980;DHT22;42288;52.182;21.156;2023-12-20T06:14:17;7.20;99.90
16980;DHT22;42288;52.182;21.156;2023-12-20T06:16:43;6.70;99.90
16980;DHT22;42288;52.182;21.156;2023-12-20T06:19:09;6.70;99.90
16980;DHT22;42288;52.182;21.156;2023-12-20T06:21:34;6.70;99.90
16980;DHT22;42288;52.182;21.156;2023-12-20T06:24:00;6.70;99.90
16980;DHT22;42288;52.182;21.156;2023-12-20T06:26:25;6.80;99.90
16980;DHT22;42288;52.182;21.156;2023-12-20T06:28:51;6.70;99.90
16980;DHT22;42288;52.182;21.156;2023-12-20T06:31:16;6.80;99.90
16980;DHT22;42288;52.182;21.156;2023-12-20T06:33:43;6.80;99.90
16980;DHT22;42288;52.182;21.156;2023-12-20T06:36:11;6.70;99.90
16980;DHT22;42288;52.182;21.156;2023-12-20T06:38:38;6.70;99.90
16980;DHT22;42288;52.182;21.156;2023-12-20T06:41:04;6.70;99.90
16980;DHT22;42288;52.182;21.156;2023-12-20T06:43:29;6.60;99.90
16980;DHT22;42288;52.182;21.156;2023-12-20T06:45:56;6.70;99.90
16980;DHT22;42288;52.182;21.156;2023-12-20T06:48:22;6.60;99.90
16980;DHT22;42288;52.182;21.156;2023-12-20T06:50:48;6.60;99.90
16980;DHT22;42288;52.182;21.156;2023-12-20T06:53:13;6.60;99.90
16980;DHT22;42288;52.182;21.156;2023-12-20T06:55:39;6.70;99.90
16980;DHT22;42288;52.182;21.156;2023-12-20T06:58:04;6.60;99.90
16980;DHT22;42288;52.182;21.156;2023-12-20T07:00:32;6.80;99.90
16980;DHT22;42288;52.182;21.156;2023-12-20T07:02:57;6.70;99.90
16980;DHT22;42288;52.182;21.156;2023-12-20T07:05:23;6.60;99.90
16980;DHT22;42288;52.182;21.156;2023-12-20T07:07:49;6.70;99.90
16980;DHT22;42288;52.182;21.156;2023-12-20T07:10:15;6.70;99.90
16980;DHT22;42288;52.182;21.156;2023-12-20T07:12:40;6.70;99.90
16980;DHT22;42288;52.182;21.156;2023-12-20T07:15:06;6.80;99.90
16980;DHT22;42288;52.182;21.156;2023-12-20T07:17:33;6.80;99.90
16980;DHT22;42288;52.182;21.156;2023-12-20T07:19:59;6.80;99.90
16980;DHT22;42288;52.182;21.156;2023-12-20T07:22:29;6.80;99.90
16980;DHT22;42288;52.182;21.156;2023-12-20T07:24:57;6.70;99.90
16980;DHT22;42288;52.182;21.156;2023-12-20T07:27:23;6.80;99.90
16980;DHT22;42288;52.182;21.156;2023-12-20T07:29:48;6.90;99.90
16980;DHT22;42288;52.182;21.156;2023-12-20T07:32:14;6.70;99.90
16980;DHT22;42288;52.182;21.156;2023-12-20T07:34:39;6.80;99.90
16980;DHT22;42288;52.182;21.156;2023-12-20T07:37:05;6.80;99.90
16980;DHT22;42288;52.182;21.156;2023-12-20T07:39:30;6.80;99.90
16980;DHT22;42288;52.182;21.156;2023-12-20T07:41:56;6.90;99.90
16980;DHT22;42288;52.182;21.156;2023-12-20T07:44:22;6.80;99.90
16980;DHT22;42288;52.182;21.156;2023-12-20T07:46:47;6.80;99.90
16980;DHT22;42288;52.182;21.156;2023-12-20T07:49:14;6.80;99.90
16980;DHT22;42288;52.182;21.156;2023-12-20T07:51:40;6.80;99.90
16980;DHT22;42288;52.182;21.156;2023-12-20T07:54:06;6.80;99.90
16980;DHT22;42288;52.182;21.156;2023-12-20T07:56:33;6.80;99.90
16980;DHT22;42288;52.182;21.156;2023-12-20T07:58:59;6.80;99.90
16980;DHT22;42288;52.182;21.156;2023-12-20T08:01:24;6.80;99.90
16980;DHT22;42288;52.182;21.156;2023-12-20T08:03:50;6.90;99.90
16980;DHT22;42288;52.182;21.156;2023-12-20T08:06:16;6.90;99.90
16980;DHT22;42288;52.182;21.156;2023-12-20T08:08:42;6.90;99.90
16980;DHT22;42288;52.182;21.156;2023-12-20T08:11:08;6.90;99.90
16980;DHT22;42288;52.182;21.156;2023-12-20T08:13:33;6.90;99.90
16980;DHT22;42288;52.182;21.156;2023-12-20T08:15:59;6.90;99.90
16980;DHT22;42288;52.182;21.156;2023-12-20T08:18:25;6.80;99.90
16980;DHT22;42288;52.182;21.156;2023-12-20T08:20:50;6.90;99.90
16980;DHT22;42288;52.182;21.156;2023-12-20T08:23:18;6.90;99.90
16980;DHT22;42288;52.182;21.156;2023-12-20T08:25:45;6.80;99.90
16980;DHT22;42288;52.182;21.156;2023-12-20T08:28:11;6.90;99.90
16980;DHT22;42288;52.182;21.156;2023-12-20T08:30:37;6.90;99.90
16980;DHT22;42288;52.182;21.156;2023-12-20T08:33:02;6.90;99.90
16980;DHT22;42288;52.182;21.156;2023-12-20T08:35:28;6.90;99.90
16980;DHT22;42288;52.182;21.156;2023-12-20T08:37:54;6.80;99.90
16980;DHT22;42288;52.182;21.156;2023-12-20T08:40:19;6.80;99.90
16980;DHT22;42288;52.182;21.156;2023-12-20T08:42:45;7.10;99.90
16980;DHT22;42288;52.182;21.156;2023-12-20T08:45:11;6.70;99.90
16980;DHT22;42288;52.182;21.156;2023-12-20T08:47:37;6.80;99.90
16980;DHT22;42288;52.182;21.156;2023-12-20T08:50:03;6.90;99.90
16980;DHT22;42288;52.182;21.156;2023-12-20T08:52:29;6.70;99.90
16980;DHT22;42288;52.182;21.156;2023-12-20T08:54:55;6.80;99.90
16980;DHT22;42288;52.182;21.156;2023-12-20T08:57:20;6.80;99.90
16980;DHT22;42288;52.182;21.156;2023-12-20T08:59:47;6.80;99.90
16980;DHT22;42288;52.182;21.156;2023-12-20T09:02:14;6.90;99.90
16980;DHT22;42288;52.182;21.156;2023-12-20T09:04:39;7.00;99.90
16980;DHT22;42288;52.182;21.156;2023-12-20T09:07:05;7.00;99.90
16980;DHT22;42288;52.182;21.156;2023-12-20T09:09:31;7.00;99.90
16980;DHT22;42288;52.182;21.156;2023-12-20T09:11:57;7.00;99.90
16980;DHT22;42288;52.182;21.156;2023-12-20T09:14:23;7.20;99.90
16980;DHT22;42288;52.182;21.156;2023-12-20T09:16:50;7.00;99.90
16980;DHT22;42288;52.182;21.156;2023-12-20T09:19:17;6.90;99.90
16980;DHT22;42288;52.182;21.156;2023-12-20T09:21:43;6.80;99.90
16980;DHT22;42288;52.182;21.156;2023-12-20T09:24:09;6.90;99.90
16980;DHT22;42288;52.182;21.156;2023-12-20T09:26:35;7.00;99.90
16980;DHT22;42288;52.182;21.156;2023-12-20T09:29:00;7.60;99.90
16980;DHT22;42288;52.182;21.156;2023-12-20T09:31:26;7.00;99.90
16980;DHT22;42288;52.182;21.156;2023-12-20T09:33:52;7.10;99.90
16980;DHT22;42288;52.182;21.156;2023-12-20T09:36:18;7.00;99.90
16980;DHT22;42288;52.182;21.156;2023-12-20T09:38:43;7.10;99.90
16980;DHT22;42288;52.182;21.156;2023-12-20T09:41:09;7.10;99.90
16980;DHT22;42288;52.182;21.156;2023-12-20T09:43:37;7.30;99.90
16980;DHT22;42288;52.182;21.156;2023-12-20T09:46:05;7.10;99.90
16980;DHT22;42288;52.182;21.156;2023-12-20T09:48:32;7.20;99.90
16980;DHT22;42288;52.182;21.156;2023-12-20T09:50:59;7.10;99.90
16980;DHT22;42288;52.182;21.156;2023-12-20T09:53:25;7.20;99.90
16980;DHT22;42288;52.182;21.156;2023-12-20T09:55:58;7.20;99.90
16980;DHT22;42288;52.182;21.156;2023-12-20T09:58:26;7.10;99.90
16980;DHT22;42288;52.182;21.156;2023-12-20T10:00:53;7.10;99.90
16980;DHT22;42288;52.182;21.156;2023-12-20T10:03:24;7.20;99.90
16980;DHT22;42288;52.182;21.156;2023-12-20T10:05:54;7.20;99.90
16980;DHT22;42288;52.182;21.156;2023-12-20T10:08:21;7.10;99.90
16980;DHT22;42288;52.182;21.156;2023-12-20T10:10:47;7.00;99.90
16980;DHT22;42288;52.182;21.156;2023-12-20T10:13:13;7.00;99.90
16980;DHT22;42288;52.182;21.156;2023-12-20T10:15:39;7.00;99.90
16980;DHT22;42288;52.182;21.156;2023-12-20T10:18:06;7.00;99.90
16980;DHT22;42288;52.182;21.156;2023-12-20T10:20:32;7.00;99.90
16980;DHT22;42288;52.182;21.156;2023-12-20T10:22:59;7.10;99.90
16980;DHT22;42288;52.182;21.156;2023-12-20T10:25:26;7.10;99.90
16980;DHT22;42288;52.182;21.156;2023-12-20T10:30:34;7.40;99.90
16980;DHT22;42288;52.182;21.156;2023-12-20T10:32:59;7.10;99.90
16980;DHT22;42288;52.182;21.156;2023-12-20T10:35:25;7.10;99.90
16980;DHT22;42288;52.182;21.156;2023-12-20T10:37:55;7.10;99.90
16980;DHT22;42288;52.182;21.156;2023-12-20T10:40:22;7.00;99.90
16980;DHT22;42288;52.182;21.156;2023-12-20T10:42:48;7.00;99.90
16980;DHT22;42288;52.182;21.156;2023-12-20T10:45:15;7.00;99.90
16980;DHT22;42288;52.182;21.156;2023-12-20T10:47:44;7.10;99.90
16980;DHT22;42288;52.182;21.156;2023-12-20T10:50:11;7.00;99.90
16980;DHT22;42288;52.182;21.156;2023-12-20T10:52:38;6.90;99.90
16980;DHT22;42288;52.182;21.156;2023-12-20T10:55:05;6.90;99.90
16980;DHT22;42288;52.182;21.156;2023-12-20T10:57:31;7.00;99.90
16980;DHT22;42288;52.182;21.156;2023-12-20T11:00:00;7.00;99.90
16980;DHT22;42288;52.182;21.156;2023-12-20T11:02:28;7.00;99.90
16980;DHT22;42288;52.182;21.156;2023-12-20T11:07:50;7.00;99.90
16980;DHT22;42288;52.182;21.156;2023-12-20T11:10:20;7.00;99.90
16980;DHT22;42288;52.182;21.156;2023-12-20T11:13:08;6.90;99.90
16980;DHT22;42288;52.182;21.156;2023-12-20T11:15:36;7.00;99.90
16980;DHT22;42288;52.182;21.156;2023-12-20T11:18:02;7.00;99.90
16980;DHT22;42288;52.182;21.156;2023-12-20T11:20:40;7.00;99.90
16980;DHT22;42288;52.182;21.156;2023-12-20T11:23:08;6.90;99.90
16980;DHT22;42288;52.182;21.156;2023-12-20T11:25:52;7.00;99.90
16980;DHT22;42288;52.182;21.156;2023-12-20T11:28:22;7.00;99.90
16980;DHT22;42288;52.182;21.156;2023-12-20T11:30:54;7.00;99.90
16980;DHT22;42288;52.182;21.156;2023-12-20T11:33:25;7.10;99.90
16980;DHT22;42288;52.182;21.156;2023-12-20T11:35:51;7.10;99.90
16980;DHT22;42288;52.182;21.156;2023-12-20T11:38:17;7.00;99.90
16980;DHT22;42288;52.182;21.156;2023-12-20T11:40:48;7.20;99.90
16980;DHT22;42288;52.182;21.156;2023-12-20T11:43:32;7.00;99.90
16980;DHT22;42288;52.182;21.156;2023-12-20T11:46:04;7.10;99.90
16980;DHT22;42288;52.182;21.156;2023-12-20T11:48:31;7.10;99.90
16980;DHT22;42288;52.182;21.156;2023-12-20T11:50:57;7.10;99.90
16980;DHT22;42288;52.182;21.156;2023-12-20T11:53:22;7.20;99.90
16980;DHT22;42288;52.182;21.156;2023-12-20T11:55:49;7.20;99.90
16980;DHT22;42288;52.182;21.156;2023-12-20T11:58:15;7.20;99.90
16980;DHT22;42288;52.182;21.156;2023-12-20T12:00:42;7.30;99.90
16980;DHT22;42288;52.182;21.156;2023-12-20T12:03:09;7.30;99.90
16980;DHT22;42288;52.182;21.156;2023-12-20T12:05:35;7.30;99.90
16980;DHT22;42288;52.182;21.156;2023-12-20T12:08:01;7.30;99.90
16980;DHT22;42288;52.182;21.156;2023-12-20T12:10:29;7.30;99.90
16980;DHT22;42288;52.182;21.156;2023-12-20T12:12:55;7.20;99.90
16980;DHT22;42288;52.182;21.156;2023-12-20T12:15:21;7.20;99.90
16980;DHT22;42288;52.182;21.156;2023-12-20T12:17:56;7.10;99.90
16980;DHT22;42288;52.182;21.156;2023-12-20T12:20:22;7.00;99.90
16980;DHT22;42288;52.182;21.156;2023-12-20T12:23:02;7.00;99.90
16980;DHT22;42288;52.182;21.156;2023-12-20T12:25:29;6.90;99.90
16980;DHT22;42288;52.182;21.156;2023-12-20T12:27:56;6.90;99.90
16980;DHT22;42288;52.182;21.156;2023-12-20T12:30:23;6.90;99.90
16980;DHT22;42288;52.182;21.156;2023-12-20T12:32:53;6.90;99.90
16980;DHT22;42288;52.182;21.156;2023-12-20T12:35:20;6.90;99.90
16980;DHT22;42288;52.182;21.156;2023-12-20T12:37:46;6.70;99.90
16980;DHT22;42288;52.182;21.156;2023-12-20T12:40:13;7.00;99.90
16980;DHT22;42288;52.182;21.156;2023-12-20T12:42:40;6.50;99.90
16980;DHT22;42288;52.182;21.156;2023-12-20T12:45:06;6.40;99.90
16980;DHT22;42288;52.182;21.156;2023-12-20T12:47:33;6.50;99.90
16980;DHT22;42288;52.182;21.156;2023-12-20T12:49:59;6.40;99.90
16980;DHT22;42288;52.182;21.156;2023-12-20T12:52:25;6.50;99.90
16980;DHT22;42288;52.182;21.156;2023-12-20T12:54:52;6.20;99.90
16980;DHT22;42288;52.182;21.156;2023-12-20T12:57:18;6.20;99.90
16980;DHT22;42288;52.182;21.156;2023-12-20T12:59:44;6.20;99.90
16980;DHT22;42288;52.182;21.156;2023-12-20T13:02:12;6.10;99.90
16980;DHT22;42288;52.182;21.156;2023-12-20T13:04:39;6.00;99.90
16980;DHT22;42288;52.182;21.156;2023-12-20T13:07:04;6.10;99.90
16980;DHT22;42288;52.182;21.156;2023-12-20T13:09:30;6.10;99.90
16980;DHT22;42288;52.182;21.156;2023-12-20T13:11:56;6.10;99.90
16980;DHT22;42288;52.182;21.156;2023-12-20T13:14:22;6.00;99.90
16980;DHT22;42288;52.182;21.156;2023-12-20T13:16:47;6.00;99.90
16980;DHT22;42288;52.182;21.156;2023-12-20T13:19:13;6.00;99.90
16980;DHT22;42288;52.182;21.156;2023-12-20T13:21:39;6.00;99.90
16980;DHT22;42288;52.182;21.156;2023-12-20T13:24:05;6.00;99.90
16980;DHT22;42288;52.182;21.156;2023-12-20T13:26:31;6.00;99.90
16980;DHT22;42288;52.182;21.156;2023-12-20T13:28:58;6.00;99.90
16980;DHT22;42288;52.182;21.156;2023-12-20T13:31:23;6.00;99.90
16980;DHT22;42288;52.182;21.156;2023-12-20T13:33:49;6.00;99.90
16980;DHT22;42288;52.182;21.156;2023-12-20T13:36:16;6.00;99.90
16980;DHT22;42288;52.182;21.156;2023-12-20T13:38:43;6.10;99.90
16980;DHT22;42288;52.182;21.156;2023-12-20T13:41:08;6.10;99.90
16980;DHT22;42288;52.182;21.156;2023-12-20T13:43:34;6.10;99.90
16980;DHT22;42288;52.182;21.156;2023-12-20T13:46:00;6.10;99.90
16980;DHT22;42288;52.182;21.156;2023-12-20T13:48:26;6.10;99.90
16980;DHT22;42288;52.182;21.156;2023-12-20T13:50:51;6.10;99.90
16980;DHT22;42288;52.182;21.156;2023-12-20T13:53:17;6.10;99.90
16980;DHT22;42288;52.182;21.156;2023-12-20T13:55:44;6.10;99.90
16980;DHT22;42288;52.182;21.156;2023-12-20T13:58:10;6.10;99.90
16980;DHT22;42288;52.182;21.156;2023-12-20T14:00:36;6.10;99.90
16980;DHT22;42288;52.182;21.156;2023-12-20T14:03:03;6.00;99.90
16980;DHT22;42288;52.182;21.156;2023-12-20T14:05:29;6.00;99.90
16980;DHT22;42288;52.182;21.156;2023-12-20T14:07:55;6.40;99.90
16980;DHT22;42288;52.182;21.156;2023-12-20T14:10:23;6.10;99.90
16980;DHT22;42288;52.182;21.156;2023-12-20T14:12:52;6.00;99.90
16980;DHT22;42288;52.182;21.156;2023-12-20T14:15:18;6.10;99.90
16980;DHT22;42288;52.182;21.156;2023-12-20T14:17:44;6.10;99.90
16980;DHT22;42288;52.182;21.156;2023-12-20T14:20:10;6.10;99.90
16980;DHT22;42288;52.182;21.156;2023-12-20T14:22:38;6.10;99.90
16980;DHT22;42288;52.182;21.156;2023-12-20T14:25:04;6.10;99.90
16980;DHT22;42288;52.182;21.156;2023-12-20T14:27:31;6.10;99.90
16980;DHT22;42288;52.182;21.156;2023-12-20T14:29:58;6.00;99.90
16980;DHT22;42288;52.182;21.156;2023-12-20T14:32:24;6.10;99.90
16980;DHT22;42288;52.182;21.156;2023-12-20T14:34:52;6.10;99.90
16980;DHT22;42288;52.182;21.156;2023-12-20T14:37:19;6.30;99.90
16980;DHT22;42288;52.182;21.156;2023-12-20T14:39:45;6.40;99.90
16980;DHT22;42288;52.182;21.156;2023-12-20T14:42:11;6.20;99.90
16980;DHT22;42288;52.182;21.156;2023-12-20T14:44:39;6.10;99.90
16980;DHT22;42288;52.182;21.156;2023-12-20T14:47:06;6.10;99.90
16980;DHT22;42288;52.182;21.156;2023-12-20T14:49:32;6.10;99.90
16980;DHT22;42288;52.182;21.156;2023-12-20T14:51:58;6.10;99.90
16980;DHT22;42288;52.182;21.156;2023-12-20T14:54:24;6.10;99.90
16980;DHT22;42288;52.182;21.156;2023-12-20T14:56:51;6.10;99.90
16980;DHT22;42288;52.182;21.156;2023-12-20T14:59:17;6.10;99.90
16980;DHT22;42288;52.182;21.156;2023-12-20T15:01:43;6.10;99.90
16980;DHT22;42288;52.182;21.156;2023-12-20T15:04:09;6.20;99.90
16980;DHT22;42288;52.182;21.156;2023-12-20T15:06:36;6.20;99.90
16980;DHT22;42288;52.182;21.156;2023-12-20T15:09:02;6.20;99.90
16980;DHT22;42288;52.182;21.156;2023-12-20T15:11:30;6.10;99.90
16980;DHT22;42288;52.182;21.156;2023-12-20T15:13:56;6.20;99.90
16980;DHT22;42288;52.182;21.156;2023-12-20T15:16:23;6.10;99.90
16980;DHT22;42288;52.182;21.156;2023-12-20T15:18:49;6.10;99.90
16980;DHT22;42288;52.182;21.156;2023-12-20T15:21:15;6.00;99.90
16980;DHT22;42288;52.182;21.156;2023-12-20T15:23:41;6.00;99.90
16980;DHT22;42288;52.182;21.156;2023-12-20T15:26:20;6.20;99.90
16980;DHT22;42288;52.182;21.156;2023-12-20T15:28:46;6.00;99.90
16980;DHT22;42288;52.182;21.156;2023-12-20T15:31:13;6.00;99.90